Terminal Aerodrome Forecast
Issued by NWS

Home | Current Version | Previous Version | Text Only | Print | Product List | Glossary On
Versions: 1 2 3 4 5 6 7 8 9 10 11 12 13 14 15 16
000
FTUS43 KGRB 281739
TAFATW
TAF
KATW 281739Z 2818/0118 04004KT 1/4SM FG OVC002
      TEMPO 2818/2821 2SM -SHRA BR SCT002 OVC005
     FM282100 05005KT 1SM -SHRA BR OVC003
     FM010400 02008G15KT 2SM -RA BR OVC005
     FM010900 01009G17KT 2SM -RASNPL BR OVC006
     FM011300 36010G18KT 1/2SM SN OVC008=

USA.gov is the U.S. government's official web portal to all federal, state and local government web resources and services.